Los Angeles, CA (90001)

5:51 AM PDT on April 24, 2017 (GMT -0700)
Victoria Ave Elementary | | Change Station

Elev 125 ft 33.95 °N, 118.21 °W | Updated 11 minutes ago

Mostly Cloudy
Mostly Cloudy
60.0 °F
Feels Like 60.0 °F
N
3.0
Wind Variable Wind from South
Gusts 3.0 mph

Today
High -- | Low -- °F
--% Chance of Precip.
Yesterday
High -- | Low -- °F
Precip. -- in
Pressure 29.87 in
Visibility 10.0 miles
Clouds Few 1900 ft
Dew Point 55 °F
Humidity 84%
Rainfall 0.00 in
Snow Depth Not available.
6:11 AM 7:31 PM
Waning Crescent, 6% visible
METAR KCQT 241247Z AUTO 00000KT 10SM FEW019 16/11 A2987 RMK AO2 SLP115 T01610111
Pressure 29.87 in
Visibility 10.0 miles
Clouds Few 1900 ft
Dew Point 55 °F
Humidity 84%
Rainfall 0.00 in
Snow Depth Not available.
6:11 AM 7:31 PM
Waning Crescent, 6% visible
METAR KCQT 241247Z AUTO 00000KT 10SM FEW019 16/11 A2987 RMK AO2 SLP115 T01610111

Get Your Daily Forecast Email!

Thanks for signing up!

Be on the lookout for a verification email in your inbox.

You'll start receiving severe weather alerts in your inbox..

×

10-Day Weather Forecast

Almanac

Astronomy

Apr. 24, 2017 Rise Set
Actual Time
Civil Twilight
Nautical Twilight
Astronomical Twilight
Moon
Length of Visible Light
Length of Day
Tomorrow will be .
, % of the Moon is Illuminated

Today's Extremes

State Highs State Lows

Community

WunderPhotos

WunderBlog® & News

Nearby

Air Quality

  Air Quality AQ Index Pollutant
Not available.

Snow Depth

Station Depth Elevation

Earthquake Activity

City Distance Mag. Time & Date
Minimum magnitude displayed is 2.5.

Coastal Water Temperatures

Place Temperature

Stations

Nearby Weather Stations

Station Location Temp. Windchill Dew Point Humidity Wind Precip. Elev Updated Type
                   

Watches & Warnings

High Surf Advisory
Issued: 12:07 AM PDT Apr. 24, 2017 – National Weather Service

... High surf advisory now in effect until 10 PM PDT this
evening...
... Beach hazards statement has expired...

* surf... building to 4 to 7 ft this morning and will persist
through late this evening. Surf will slowly diminish
by late this evening through Tuesday morning.

* Impacts... there is an increased risk of ocean drowning. Rip
currents can pull swimmers and surfers out to sea. Waves can
wash people off beaches and rocks... and capsize small boats
nearshore.

* Locations... highest surf will be on west facing beaches.

Precautionary/preparedness actions...

A high surf advisory means that high surf will affect beaches in
the advisory area... producing localized beach erosion and
dangerous swimming conditions. Swim near a lifeguard. If caught
in a rip current, relax and float. Don't swim against the
current. If able, swim in a direction following the shoreline. If
unable to escape, face the shore and call or wave for help.



Kaplan